createdAt,value
2023-03-03T00:01:26.305Z,7.23
2023-03-03T00:03:55.546Z,6.39
2023-03-03T00:06:25.561Z,6.41
2023-03-03T00:08:55.027Z,6.69
2023-03-03T00:11:22.777Z,7.26
2023-03-03T00:13:54.695Z,6.34
2023-03-03T00:16:28.357Z,7.20
2023-03-03T00:18:55.806Z,7.25
2023-03-03T00:21:32.522Z,7.11
2023-03-03T00:24:16.060Z,6.25
2023-03-03T00:26:47.565Z,7.11
2023-03-03T00:29:28.805Z,7.13
2023-03-03T00:31:55.957Z,6.11
2023-03-03T00:34:28.205Z,6.95
2023-03-03T00:36:56.636Z,6.86
2023-03-03T00:39:32.247Z,6.80
2023-03-03T00:42:04.442Z,6.83
2023-03-03T00:44:43.821Z,6.75
2023-03-03T00:47:31.174Z,6.75
2023-03-03T00:50:07.580Z,6.76
2023-03-03T00:52:39.911Z,6.53
2023-03-03T00:55:08.167Z,5.75
2023-03-03T00:57:37.754Z,6.75
2023-03-03T01:00:10.490Z,6.74
2023-03-03T01:02:37.444Z,6.00
2023-03-03T01:05:06.781Z,6.30
2023-03-03T01:07:36.062Z,4.90
2023-03-03T01:10:02.928Z,5.86
2023-03-03T01:12:29.815Z,4.22
2023-03-03T01:14:57.817Z,5.36
2023-03-03T01:17:24.696Z,6.35
2023-03-03T01:19:53.713Z,5.28
2023-03-03T01:22:20.583Z,6.28
2023-03-03T01:24:49.710Z,6.23
2023-03-03T01:27:17.621Z,5.35
2023-03-03T01:29:49.873Z,5.36
2023-03-03T01:32:16.760Z,5.97
2023-03-03T01:34:43.584Z,5.18
2023-03-03T01:37:12.460Z,6.05
2023-03-03T01:39:39.217Z,6.09
2023-03-03T01:42:06.145Z,5.93
2023-03-03T01:44:33.236Z,5.99
2023-03-03T01:47:21.805Z,5.98
2023-03-03T01:49:59.920Z,4.63
2023-03-03T01:52:32.714Z,4.61
2023-03-03T01:55:10.246Z,5.19
2023-03-03T01:57:44.311Z,5.78
2023-03-03T02:00:16.407Z,5.83
2023-03-03T02:02:45.015Z,4.37
2023-03-03T02:05:15.286Z,5.06
2023-03-03T02:07:44.191Z,5.61
2023-03-03T02:10:14.112Z,5.12
2023-03-03T02:12:53.800Z,5.85
2023-03-03T02:15:36.167Z,5.28
2023-03-03T02:18:09.691Z,5.92
2023-03-03T02:20:45.872Z,5.98
2023-03-03T02:23:31.447Z,5.99
2023-03-03T02:25:59.298Z,5.99
2023-03-03T02:28:34.539Z,5.23
2023-03-03T02:31:11.004Z,5.92
2023-03-03T02:33:42.253Z,4.59
2023-03-03T02:36:32.428Z,5.77
2023-03-03T02:39:27.236Z,4.58
2023-03-03T02:42:13.410Z,5.80
2023-03-03T02:44:44.695Z,4.94
2023-03-03T02:47:13.642Z,5.66
2023-03-03T02:49:40.487Z,5.31
2023-03-03T02:52:12.165Z,4.38
2023-03-03T02:54:41.620Z,3.29
2023-03-03T02:57:09.463Z,5.18
2023-03-03T02:59:38.341Z,5.30
2023-03-03T03:02:10.468Z,4.34
2023-03-03T03:04:37.382Z,5.02
2023-03-03T03:07:05.117Z,5.15
2023-03-03T03:09:34.349Z,4.90
2023-03-03T03:12:05.418Z,4.73
2023-03-03T03:14:39.690Z,5.31
2023-03-03T03:17:08.852Z,4.62
2023-03-03T03:19:35.772Z,5.26
2023-03-03T03:22:03.090Z,4.64
2023-03-03T03:24:36.022Z,5.03
2023-03-03T03:27:07.101Z,4.99
2023-03-03T03:29:36.107Z,4.87
2023-03-03T03:32:05.283Z,5.69
2023-03-03T03:34:32.376Z,5.79
2023-03-03T03:36:59.974Z,3.98
2023-03-03T03:39:28.379Z,4.94
2023-03-03T03:41:56.075Z,5.44
2023-03-03T03:44:24.410Z,5.55
2023-03-03T03:46:52.101Z,5.04
2023-03-03T03:49:20.936Z,5.53
2023-03-03T03:51:52.517Z,5.54
2023-03-03T03:54:22.956Z,4.93
2023-03-03T03:56:54.517Z,5.50
2023-03-03T03:59:24.389Z,5.23
2023-03-03T04:01:52.068Z,5.60
2023-03-03T04:04:20.711Z,4.94
2023-03-03T04:06:47.982Z,4.14
2023-03-03T04:09:15.283Z,5.98
2023-03-03T04:11:45.759Z,6.01
2023-03-03T04:14:13.756Z,5.41
2023-03-03T04:16:43.134Z,5.33
2023-03-03T04:19:12.602Z,5.96
2023-03-03T04:21:42.087Z,5.47
2023-03-03T04:24:09.074Z,4.78
2023-03-03T04:26:37.547Z,5.88
2023-03-03T04:29:10.988Z,5.10
2023-03-03T04:31:41.197Z,5.43
2023-03-03T04:34:09.758Z,6.16
2023-03-03T04:36:36.982Z,5.85
2023-03-03T04:39:06.336Z,5.89
2023-03-03T04:41:37.929Z,5.29
2023-03-03T04:44:13.906Z,5.92
2023-03-03T04:47:05.610Z,5.01
2023-03-03T04:49:37.129Z,5.24
2023-03-03T04:52:10.411Z,5.52
2023-03-03T04:54:38.350Z,5.33
2023-03-03T04:57:13.438Z,5.53
2023-03-03T04:59:43.636Z,5.27
2023-03-03T05:02:16.991Z,4.82
2023-03-03T05:04:52.005Z,5.25
2023-03-03T05:07:28.992Z,5.25
2023-03-03T05:09:55.760Z,5.45
2023-03-03T05:12:32.629Z,5.42
2023-03-03T05:15:15.472Z,5.50
2023-03-03T05:17:55.442Z,5.12
2023-03-03T05:20:29.611Z,5.53
2023-03-03T05:23:01.737Z,6.01
2023-03-03T05:25:36.592Z,5.70
2023-03-03T05:28:06.972Z,5.68
2023-03-03T05:30:36.800Z,5.11
2023-03-03T05:33:06.897Z,6.05
2023-03-03T05:35:37.182Z,5.89
2023-03-03T05:38:09.663Z,5.08
2023-03-03T05:40:43.928Z,5.40
2023-03-03T05:43:16.075Z,5.84
2023-03-03T05:45:43.035Z,5.12
2023-03-03T05:48:10.445Z,5.70
2023-03-03T05:50:46.507Z,5.52
2023-03-03T05:53:22.449Z,6.00
2023-03-03T05:55:54.050Z,6.05
2023-03-03T05:58:25.466Z,6.13
2023-03-03T06:00:54.442Z,5.81
2023-03-03T06:03:21.349Z,5.83
2023-03-03T06:05:56.891Z,5.79
2023-03-03T06:08:24.555Z,5.99
2023-03-03T06:10:56.218Z,6.23
2023-03-03T06:13:27.225Z,5.57
2023-03-03T06:15:57.034Z,5.42
2023-03-03T06:18:31.815Z,5.37
2023-03-03T06:21:03.614Z,5.80
2023-03-03T06:23:32.162Z,5.26
2023-03-03T06:26:04.964Z,6.16
2023-03-03T06:28:44.499Z,6.19
2023-03-03T06:31:14.056Z,6.10
2023-03-03T06:33:47.478Z,5.83
2023-03-03T06:36:23.534Z,6.26
2023-03-03T06:39:01.107Z,6.43
2023-03-03T06:41:33.647Z,6.24
2023-03-03T06:44:06.121Z,5.67
2023-03-03T06:46:36.843Z,6.00
2023-03-03T06:49:09.741Z,6.18
2023-03-03T06:51:46.621Z,6.63
2023-03-03T06:54:38.726Z,6.78
2023-03-03T06:57:37.994Z,7.02
2023-03-03T07:00:31.128Z,7.00
2023-03-03T07:03:04.825Z,6.81
2023-03-03T07:05:35.109Z,6.99
2023-03-03T07:08:15.239Z,6.37
2023-03-03T07:10:44.669Z,6.89
2023-03-03T07:13:24.736Z,7.45
2023-03-03T07:16:04.020Z,6.88
2023-03-03T07:18:56.114Z,7.58
2023-03-03T07:21:41.592Z,7.15
2023-03-03T07:24:32.537Z,7.37
2023-03-03T07:27:31.068Z,7.75
2023-03-03T07:30:19.211Z,7.75
2023-03-03T07:33:02.644Z,7.85
2023-03-03T07:35:50.028Z,7.30
2023-03-03T07:38:27.158Z,7.84
2023-03-03T07:41:05.932Z,7.36
2023-03-03T07:43:58.897Z,7.99
2023-03-03T07:46:46.752Z,8.13
2023-03-03T07:49:37.109Z,7.54
2023-03-03T07:52:30.870Z,7.60
2023-03-03T07:55:25.688Z,8.38
2023-03-03T07:58:02.798Z,7.73
2023-03-03T08:00:35.815Z,8.77
2023-03-03T08:03:26.735Z,8.46
2023-03-03T08:05:59.395Z,7.88
2023-03-03T08:08:46.443Z,8.53
2023-03-03T08:11:18.512Z,8.50
2023-03-03T08:13:50.404Z,9.15
2023-03-03T08:16:44.692Z,9.27
2023-03-03T08:19:13.532Z,8.91
2023-03-03T08:21:42.583Z,9.43
2023-03-03T08:24:10.663Z,8.24
2023-03-03T08:26:38.507Z,8.43
2023-03-03T08:29:05.228Z,8.74
2023-03-03T08:31:41.161Z,8.80
2023-03-03T08:34:16.352Z,8.98
2023-03-03T08:36:43.577Z,9.01
2023-03-03T08:39:13.450Z,7.73
2023-03-03T08:41:48.626Z,8.93
2023-03-03T08:44:20.122Z,9.39
2023-03-03T08:46:51.862Z,9.08
2023-03-03T08:49:20.789Z,9.12
2023-03-03T08:51:48.608Z,9.88
2023-03-03T08:54:21.227Z,9.31
2023-03-03T08:56:48.003Z,9.03
2023-03-03T08:59:17.438Z,10.04
2023-03-03T09:01:46.818Z,10.35
2023-03-03T09:04:20.598Z,10.45
2023-03-03T09:06:48.555Z,10.00
2023-03-03T09:09:17.946Z,10.53
2023-03-03T09:11:48.159Z,10.50
2023-03-03T09:14:17.577Z,10.05
2023-03-03T09:16:57.413Z,10.18
2023-03-03T09:19:30.863Z,10.60
2023-03-03T09:22:12.058Z,10.69
2023-03-03T09:24:39.009Z,10.10
2023-03-03T09:27:25.607Z,10.07
2023-03-03T09:29:57.789Z,10.47
2023-03-03T09:32:33.869Z,10.77
2023-03-03T09:35:21.420Z,10.71
2023-03-03T09:37:50.598Z,10.79
2023-03-03T09:40:42.640Z,11.41
2023-03-03T09:43:14.302Z,11.43
2023-03-03T09:46:07.410Z,11.29
2023-03-03T09:48:49.052Z,11.61
2023-03-03T09:51:26.881Z,11.69
2023-03-03T09:54:08.002Z,11.74
2023-03-03T09:56:42.443Z,11.63
2023-03-03T09:59:40.288Z,12.29
2023-03-03T10:02:38.378Z,11.12
2023-03-03T10:05:20.187Z,12.55
2023-03-03T10:07:55.927Z,12.75
2023-03-03T10:10:45.274Z,12.37
2023-03-03T10:13:30.885Z,12.20
2023-03-03T10:16:29.057Z,12.20
2023-03-03T10:19:03.187Z,11.63
2023-03-03T10:21:43.577Z,12.50
2023-03-03T10:24:35.015Z,12.57
2023-03-03T10:27:14.380Z,12.50
2023-03-03T10:29:59.390Z,12.62
2023-03-03T10:32:35.796Z,12.91
2023-03-03T10:35:12.029Z,13.44
2023-03-03T10:37:57.169Z,13.88
2023-03-03T10:40:47.403Z,13.25
2023-03-03T10:43:32.875Z,14.04
2023-03-03T10:46:20.139Z,14.06
2023-03-03T10:49:16.857Z,13.76
2023-03-03T10:52:02.549Z,13.95
2023-03-03T10:54:55.186Z,14.12
2023-03-03T10:57:42.165Z,13.69
2023-03-03T11:00:26.363Z,13.33
2023-03-03T11:03:11.905Z,14.48
2023-03-03T11:05:57.857Z,14.86
2023-03-03T11:08:30.407Z,14.54
2023-03-03T11:11:20.830Z,15.05
2023-03-03T11:13:50.026Z,15.59
2023-03-03T11:16:32.920Z,15.61
2023-03-03T11:19:32.486Z,15.86
2023-03-03T11:22:03.651Z,16.06
2023-03-03T11:24:51.565Z,16.78
2023-03-03T11:27:28.576Z,15.62
2023-03-03T11:30:08.316Z,14.83
2023-03-03T11:32:45.343Z,15.79
2023-03-03T11:35:23.160Z,16.23
2023-03-03T11:38:15.573Z,16.30
2023-03-03T11:40:49.061Z,16.58
2023-03-03T11:43:36.643Z,16.42
2023-03-03T11:46:10.337Z,16.46
2023-03-03T11:48:49.815Z,16.17
2023-03-03T11:51:43.605Z,16.08
2023-03-03T11:54:17.998Z,15.18
2023-03-03T11:56:46.645Z,15.67
2023-03-03T11:59:32.747Z,15.63
2023-03-03T12:02:28.611Z,15.35
2023-03-03T12:05:34.049Z,15.15
2023-03-03T12:08:28.963Z,15.48
2023-03-03T12:11:13.059Z,15.15
2023-03-03T12:13:54.746Z,16.98
2023-03-03T12:16:29.964Z,17.59
2023-03-03T12:19:20.445Z,18.43
2023-03-03T12:22:18.713Z,18.54
2023-03-03T12:25:13.199Z,18.48
2023-03-03T12:27:54.097Z,17.94
2023-03-03T12:30:26.906Z,18.91
2023-03-03T12:33:03.920Z,17.95
2023-03-03T12:35:36.878Z,17.97
2023-03-03T12:38:14.985Z,17.21
2023-03-03T12:40:52.176Z,15.77
2023-03-03T12:43:46.256Z,15.20
2023-03-03T12:46:16.034Z,15.15
2023-03-03T12:48:45.159Z,14.83
2023-03-03T12:51:31.629Z,13.98
2023-03-03T12:54:00.664Z,14.32
2023-03-03T12:57:29.226Z,14.31
2023-03-03T13:00:19.246Z,14.82
2023-03-03T13:03:03.736Z,15.15
2023-03-03T13:05:45.875Z,14.99
2023-03-03T13:08:43.118Z,16.44
2023-03-03T13:11:42.594Z,19.07
2023-03-03T13:14:26.246Z,18.59
2023-03-03T13:17:02.807Z,18.68
2023-03-03T13:19:38.462Z,18.49
2023-03-03T13:22:22.159Z,19.00
2023-03-03T13:24:58.008Z,18.97
2023-03-03T13:27:28.232Z,18.00
2023-03-03T13:30:26.658Z,18.40
2023-03-03T13:32:56.318Z,18.44
2023-03-03T13:35:29.293Z,18.39
2023-03-03T13:37:59.725Z,18.21
2023-03-03T13:40:31.008Z,18.26
2023-03-03T13:43:04.391Z,19.10
2023-03-03T13:45:57.593Z,19.15
2023-03-03T13:48:45.401Z,19.03
2023-03-03T13:51:35.149Z,19.39
2023-03-03T13:54:19.276Z,19.32
2023-03-03T13:57:10.781Z,18.60
2023-03-03T13:59:58.286Z,18.46
2023-03-03T14:02:43.979Z,18.22
2023-03-03T14:05:44.660Z,17.90
2023-03-03T14:08:29.965Z,18.01
2023-03-03T14:11:27.549Z,18.13
2023-03-03T14:14:18.138Z,18.05
2023-03-03T14:16:54.670Z,17.56
2023-03-03T14:19:27.546Z,17.41
2023-03-03T14:22:16.922Z,17.95
2023-03-03T14:25:09.773Z,18.39
2023-03-03T14:27:48.700Z,18.28
2023-03-03T14:30:36.282Z,18.42
2023-03-03T14:33:12.354Z,18.46
2023-03-03T14:35:40.345Z,18.93
2023-03-03T14:38:18.941Z,19.58
2023-03-03T14:40:58.301Z,18.69
2023-03-03T14:43:27.573Z,18.38
2023-03-03T14:45:58.870Z,18.19
2023-03-03T14:48:32.828Z,17.67
2023-03-03T14:51:15.604Z,18.39
2023-03-03T14:53:46.247Z,18.29
2023-03-03T14:56:23.568Z,18.33
2023-03-03T14:58:56.328Z,17.68
2023-03-03T15:01:40.977Z,18.53
2023-03-03T15:04:20.105Z,19.10
2023-03-03T15:06:51.553Z,19.35
2023-03-03T15:09:25.005Z,19.11
2023-03-03T15:11:53.680Z,19.11
2023-03-03T15:14:37.735Z,18.93
2023-03-03T15:17:37.088Z,18.11
2023-03-03T15:20:12.655Z,17.65
2023-03-03T15:22:55.702Z,17.49
2023-03-03T15:25:42.001Z,17.36
2023-03-03T15:28:40.333Z,17.40
2023-03-03T15:31:38.353Z,17.19
2023-03-03T15:34:32.417Z,16.59
2023-03-03T15:37:10.940Z,14.72
2023-03-03T15:39:43.618Z,15.79
2023-03-03T15:42:27.395Z,15.87
2023-03-03T15:45:26.901Z,16.20
2023-03-03T15:48:19.639Z,16.82
2023-03-03T15:51:11.187Z,16.28
2023-03-03T15:54:23.057Z,17.36
2023-03-03T15:57:18.771Z,17.40
2023-03-03T15:59:50.953Z,17.46
2023-03-03T16:02:25.727Z,17.15
2023-03-03T16:05:06.666Z,16.31
2023-03-03T16:07:54.866Z,16.70
2023-03-03T16:10:35.183Z,16.32
2023-03-03T16:13:33.779Z,16.27
2023-03-03T16:16:02.970Z,15.76
2023-03-03T16:19:07.863Z,15.36
2023-03-03T16:22:08.197Z,15.02
2023-03-03T16:24:59.894Z,14.27
2023-03-03T16:27:50.655Z,14.26
2023-03-03T16:30:23.649Z,14.15
2023-03-03T16:33:19.914Z,13.81
2023-03-03T16:35:56.304Z,12.69
2023-03-03T16:38:33.935Z,12.41
2023-03-03T16:41:08.853Z,12.17
2023-03-03T16:44:09.430Z,12.77
2023-03-03T16:46:45.184Z,11.77
2023-03-03T16:49:23.448Z,12.53
2023-03-03T16:51:58.498Z,12.30
2023-03-03T16:54:30.333Z,12.34
2023-03-03T16:57:21.337Z,12.27
2023-03-03T17:00:06.907Z,11.38
2023-03-03T17:02:55.296Z,12.19
2023-03-03T17:05:44.871Z,12.12
2023-03-03T17:08:20.821Z,12.07
2023-03-03T17:10:50.931Z,11.95
2023-03-03T17:13:19.899Z,11.85
2023-03-03T17:15:53.540Z,11.81
2023-03-03T17:18:45.258Z,11.75
2023-03-03T17:21:29.795Z,11.21
2023-03-03T17:24:15.499Z,11.49
2023-03-03T17:26:52.947Z,11.12
2023-03-03T17:29:38.587Z,11.33
2023-03-03T17:32:42.747Z,11.22
2023-03-03T17:35:42.057Z,11.13
2023-03-03T17:38:34.057Z,10.92
2023-03-03T17:41:32.849Z,10.88
2023-03-03T17:44:21.079Z,10.76
2023-03-03T17:46:49.434Z,10.51
2023-03-03T17:49:41.496Z,10.45
2023-03-03T17:52:28.873Z,10.43
2023-03-03T17:55:07.287Z,9.65
2023-03-03T17:57:52.804Z,10.28
2023-03-03T18:01:15.331Z,10.18
2023-03-03T18:03:51.517Z,10.28
2023-03-03T18:07:06.103Z,9.88
2023-03-03T18:10:03.865Z,10.11
2023-03-03T18:12:45.917Z,10.00
2023-03-03T18:15:37.578Z,9.84
2023-03-03T18:18:27.473Z,9.23
2023-03-03T18:21:02.807Z,9.69
2023-03-03T18:23:44.405Z,9.72
2023-03-03T18:26:38.690Z,9.74
2023-03-03T18:29:11.430Z,9.82
2023-03-03T18:32:03.737Z,9.49
2023-03-03T18:34:40.528Z,9.22
2023-03-03T18:37:29.176Z,9.71
2023-03-03T18:40:02.354Z,9.67
2023-03-03T18:42:43.431Z,9.63
2023-03-03T18:45:33.149Z,9.58
2023-03-03T18:48:13.877Z,9.51
2023-03-03T18:50:48.605Z,8.94
2023-03-03T18:53:15.566Z,9.47
2023-03-03T18:56:00.065Z,9.40
2023-03-03T18:58:27.569Z,8.76
2023-03-03T19:01:00.429Z,9.23
2023-03-03T19:04:14.142Z,9.23
2023-03-03T19:06:43.861Z,9.16
2023-03-03T19:09:23.026Z,8.70
2023-03-03T19:11:58.501Z,9.15
2023-03-03T19:14:29.691Z,9.14
2023-03-03T19:16:58.887Z,8.88
2023-03-03T19:19:37.898Z,9.05
2023-03-03T19:22:19.897Z,9.25
2023-03-03T19:25:08.231Z,8.69
2023-03-03T19:27:44.338Z,9.31
2023-03-03T19:30:36.932Z,8.46
2023-03-03T19:33:24.030Z,9.27
2023-03-03T19:36:19.976Z,9.16
2023-03-03T19:39:12.241Z,8.24
2023-03-03T19:42:04.804Z,9.12
2023-03-03T19:44:44.334Z,9.14
2023-03-03T19:47:34.315Z,7.79
2023-03-03T19:50:45.677Z,8.89
2023-03-03T19:53:18.094Z,9.04
2023-03-03T19:56:03.559Z,9.03
2023-03-03T19:58:55.983Z,8.99
2023-03-03T20:01:34.322Z,8.81
2023-03-03T20:04:04.173Z,8.96
2023-03-03T20:06:54.369Z,8.92
2023-03-03T20:09:41.049Z,8.23
2023-03-03T20:12:13.016Z,8.75
2023-03-03T20:14:46.316Z,7.96
2023-03-03T20:17:32.275Z,8.68
2023-03-03T20:20:27.424Z,8.62
2023-03-03T20:23:24.010Z,8.57
2023-03-03T20:25:57.842Z,7.54
2023-03-03T20:28:57.652Z,8.45
2023-03-03T20:31:33.501Z,8.31
2023-03-03T20:34:35.728Z,8.47
2023-03-03T20:37:13.857Z,7.74
2023-03-03T20:40:07.658Z,8.36
2023-03-03T20:43:08.894Z,7.79
2023-03-03T20:46:09.864Z,8.25
2023-03-03T20:48:46.949Z,8.23
2023-03-03T20:51:13.686Z,8.21
2023-03-03T20:53:49.375Z,8.21
2023-03-03T20:56:34.279Z,8.24
2023-03-03T20:59:28.562Z,6.92
2023-03-03T21:02:16.671Z,8.19
2023-03-03T21:04:43.621Z,7.74
2023-03-03T21:07:24.175Z,7.68
2023-03-03T21:09:51.064Z,7.71
2023-03-03T21:12:38.734Z,7.71
2023-03-03T21:15:22.600Z,7.28
2023-03-03T21:17:51.904Z,7.54
2023-03-03T21:20:29.105Z,8.03
2023-03-03T21:22:59.903Z,8.01
2023-03-03T21:25:44.129Z,8.04
2023-03-03T21:28:17.187Z,7.99
2023-03-03T21:31:06.706Z,7.61
2023-03-03T21:33:55.601Z,7.90
2023-03-03T21:36:25.558Z,7.91
2023-03-03T21:38:53.873Z,7.40
2023-03-03T21:41:23.060Z,7.27
2023-03-03T21:43:52.331Z,7.84
2023-03-03T21:46:27.245Z,7.74
2023-03-03T21:48:56.728Z,5.78
2023-03-03T21:51:24.965Z,7.58
2023-03-03T21:53:55.505Z,7.31
2023-03-03T21:56:22.230Z,6.87
2023-03-03T21:58:51.777Z,7.14
2023-03-03T22:01:18.414Z,7.56
2023-03-03T22:03:45.366Z,6.94
2023-03-03T22:06:12.485Z,6.90
2023-03-03T22:08:39.320Z,6.22
2023-03-03T22:11:06.083Z,6.86
2023-03-03T22:13:32.908Z,6.53
2023-03-03T22:15:59.692Z,6.94
2023-03-03T22:18:26.489Z,7.31
2023-03-03T22:20:55.491Z,6.72
2023-03-03T22:23:22.443Z,7.33
2023-03-03T22:25:49.291Z,6.65
2023-03-03T22:28:18.372Z,7.32
2023-03-03T22:30:49.980Z,6.26
2023-03-03T22:33:16.778Z,6.63
2023-03-03T22:35:43.928Z,6.76
2023-03-03T22:38:12.892Z,7.12
2023-03-03T22:40:44.817Z,6.49
2023-03-03T22:43:16.297Z,7.04
2023-03-03T22:45:45.400Z,6.47
2023-03-03T22:48:14.639Z,6.44
2023-03-03T22:50:45.581Z,6.89
2023-03-03T22:53:12.343Z,6.21
2023-03-03T22:55:39.171Z,6.70
2023-03-03T22:58:09.310Z,6.75
2023-03-03T23:00:38.532Z,5.98
2023-03-03T23:03:11.999Z,6.29
2023-03-03T23:05:39.026Z,5.87
2023-03-03T23:08:12.122Z,5.04
2023-03-03T23:10:39.016Z,6.03
2023-03-03T23:13:05.799Z,6.88
2023-03-03T23:15:33.214Z,6.92
2023-03-03T23:18:02.151Z,6.81
2023-03-03T23:20:31.833Z,6.35
2023-03-03T23:22:59.092Z,6.28
2023-03-03T23:25:30.638Z,6.27
2023-03-03T23:27:57.953Z,6.24
2023-03-03T23:30:27.207Z,6.55
2023-03-03T23:32:54.265Z,6.56
2023-03-03T23:35:21.214Z,6.13
2023-03-03T23:37:50.844Z,6.20
2023-03-03T23:40:18.278Z,5.70
2023-03-03T23:42:45.207Z,6.47
2023-03-03T23:45:14.843Z,6.60
2023-03-03T23:47:41.997Z,6.52
2023-03-03T23:50:14.378Z,5.82
2023-03-03T23:52:44.362Z,6.22
2023-03-03T23:55:13.484Z,6.53
2023-03-03T23:57:40.299Z,5.58
